Time,TemperatureF,DewpointF,PressureIn,WindDirection,WindDirectionDegrees,WindSpeedMPH,WindSpeedGustMPH,Humidity,HourlyPrecipIn,Conditions,Clouds,dailyrainin,SoftwareType,DateUTC
2013-10-20 00:02:00,-999.0,-99.9,29.92,West,264,0.0,0.0,-999,-99.99,,,-99.99,,2013-10-20 04:02:00,
2013-10-20 00:24:00,44.0,40.0,29.91,West,264,0.0,0.0,85,0.00,,,0.20,,2013-10-20 04:24:00,
2013-10-20 00:54:00,44.0,40.0,29.91,West,264,0.0,1.0,86,0.00,,,0.20,,2013-10-20 04:54:00,
2013-10-20 01:23:00,44.0,39.0,29.91,West,264,0.0,1.0,84,0.00,,,0.20,,2013-10-20 05:23:00,
2013-10-20 01:52:00,44.0,39.0,29.91,West,264,0.0,1.0,84,0.00,,,0.20,,2013-10-20 05:52:00,
2013-10-20 02:22:00,44.0,39.0,29.90,West,264,0.0,1.0,83,0.00,,,0.20,,2013-10-20 06:22:00,
2013-10-20 02:52:00,43.0,39.0,29.90,West,264,0.0,1.0,85,0.00,,,0.20,,2013-10-20 06:52:00,
2013-10-20 03:22:00,44.0,40.0,29.90,West,275,0.0,2.0,85,0.00,,,0.20,,2013-10-20 07:22:00,
2013-10-20 03:42:00,44.0,39.0,29.90,West,275,0.0,1.0,84,0.00,,,0.20,,2013-10-20 07:42:00,
2013-10-20 03:52:00,44.0,39.0,29.89,West,275,0.0,1.0,84,0.00,,,0.20,,2013-10-20 07:52:00,
2013-10-20 04:22:00,44.0,39.0,29.89,West,275,0.0,1.0,84,0.00,,,0.20,,2013-10-20 08:22:00,
2013-10-20 04:42:00,43.0,38.0,29.89,West,275,0.0,1.0,84,0.00,,,0.19,,2013-10-20 08:42:00,
2013-10-20 04:52:00,43.0,39.0,29.89,West,275,0.0,0.0,85,0.00,,,0.19,,2013-10-20 08:52:00,
2013-10-20 05:21:00,43.0,39.0,29.89,West,275,0.0,1.0,87,0.00,,,0.19,,2013-10-20 09:21:00,
2013-10-20 05:43:00,43.0,39.0,29.88,West,275,0.0,1.0,87,0.00,,,0.16,,2013-10-20 09:43:00,
2013-10-20 05:53:00,42.0,38.0,29.89,NW,304,0.0,2.0,87,0.00,,,0.16,,2013-10-20 09:53:00,
2013-10-20 06:23:00,42.0,38.0,29.90,NW,304,0.0,1.0,87,0.00,,,0.16,,2013-10-20 10:23:00,
2013-10-20 06:53:00,41.0,38.0,29.90,NW,304,0.0,0.0,89,0.00,,,0.12,,2013-10-20 10:53:00,
2013-10-20 07:22:00,40.0,37.0,29.91,NW,304,0.0,0.0,90,0.00,,,0.12,,2013-10-20 11:22:00,
2013-10-20 07:52:00,40.0,38.0,29.91,NW,304,0.0,1.0,91,0.00,,,0.08,,2013-10-20 11:52:00,
2013-10-20 08:21:00,39.0,37.0,29.91,NW,304,0.0,0.0,92,0.00,,,0.08,,2013-10-20 12:21:00,
2013-10-20 08:42:00,39.0,37.0,29.92,NW,304,0.0,0.0,92,0.00,,,0.03,,2013-10-20 12:42:00,
2013-10-20 08:52:00,39.0,37.0,29.92,NW,304,0.0,0.0,92,0.00,,,0.03,,2013-10-20 12:52:00,
2013-10-20 09:21:00,40.0,38.0,29.93,NW,304,0.0,1.0,94,0.00,,,0.03,,2013-10-20 13:21:00,
2013-10-20 09:42:00,41.0,39.0,29.94,NW,304,0.0,1.0,94,0.00,,,0.01,,2013-10-20 13:42:00,
2013-10-20 09:52:00,42.0,40.0,29.94,NW,304,0.0,1.0,93,0.00,,,0.01,,2013-10-20 13:52:00,
2013-10-20 10:22:00,44.0,41.0,29.95,WNW,287,0.0,2.0,90,0.00,,,0.01,,2013-10-20 14:22:00,
2013-10-20 10:52:00,46.0,42.0,29.93,North,360,0.0,2.0,86,0.00,,,0.00,,2013-10-20 14:52:00,
2013-10-20 11:22:00,48.0,43.0,29.93,SE,146,0.0,1.0,83,0.00,,,0.00,,2013-10-20 15:22:00,
2013-10-20 11:54:00,52.0,44.0,29.93,WNW,302,0.0,4.0,75,0.00,,,0.00,,2013-10-20 15:54:00,
2013-10-20 12:24:00,55.0,46.0,29.92,North,355,0.0,4.0,71,0.00,,,0.00,,2013-10-20 16:24:00,
2013-10-20 12:43:00,56.0,47.0,29.92,SSE,149,0.0,2.0,73,0.00,,,0.00,,2013-10-20 16:43:00,
2013-10-20 12:54:00,56.0,47.0,29.91,South,178,1.0,2.0,71,0.00,,,0.00,,2013-10-20 16:54:00,
2013-10-20 13:23:00,58.0,47.0,29.90,NW,313,0.0,5.0,68,0.00,,,0.00,,2013-10-20 17:23:00,
2013-10-20 13:42:00,59.0,48.0,29.90,South,184,1.0,5.0,66,0.00,,,0.00,,2013-10-20 17:42:00,
2013-10-20 13:52:00,60.0,48.0,29.90,NE,52,1.0,5.0,64,0.00,,,0.00,,2013-10-20 17:52:00,
2013-10-20 14:21:00,61.0,48.0,29.89,SW,215,0.0,5.0,62,0.00,,,0.00,,2013-10-20 18:21:00,
2013-10-20 14:42:00,61.0,48.0,29.88,WSW,256,1.0,5.0,63,0.00,,,0.00,,2013-10-20 18:42:00,
2013-10-20 14:52:00,63.0,49.0,29.87,South,186,2.0,6.0,60,0.00,,,0.00,,2013-10-20 18:52:00,
2013-10-20 15:22:00,62.0,48.0,29.86,SW,218,2.0,8.0,60,0.00,,,0.00,,2013-10-20 19:22:00,
2013-10-20 15:42:00,63.0,48.0,29.85,ESE,105,3.0,5.0,59,0.00,,,0.00,,2013-10-20 19:42:00,
2013-10-20 15:52:00,62.0,47.0,29.85,SSW,197,2.0,13.0,59,0.00,,,0.00,,2013-10-20 19:52:00,
2013-10-20 16:22:00,63.0,47.0,29.85,SSW,197,2.0,6.0,56,0.00,,,0.00,,2013-10-20 20:22:00,
2013-10-20 16:52:00,63.0,47.0,29.84,NW,323,1.0,6.0,56,0.00,,,0.00,,2013-10-20 20:52:00,
2013-10-20 17:21:00,63.0,48.0,29.84,SW,223,0.0,8.0,57,0.00,,,0.00,,2013-10-20 21:21:00,
2013-10-20 17:54:00,63.0,48.0,29.84,SW,223,0.0,8.0,57,0.00,,,0.00,,2013-10-20 21:54:00,
2013-10-20 18:23:00,63.0,48.0,29.83,SSW,198,1.0,6.0,57,0.00,,,0.00,,2013-10-20 22:23:00,
2013-10-20 18:43:00,62.0,47.0,29.83,WSW,240,1.0,8.0,58,0.00,,,0.00,,2013-10-20 22:43:00,
2013-10-20 18:53:00,61.0,47.0,29.83,SSW,200,2.0,7.0,59,0.00,,,0.00,,2013-10-20 22:53:00,
2013-10-20 19:22:00,59.0,46.0,29.84,SSW,209,0.0,10.0,62,0.00,,,0.00,,2013-10-20 23:22:00,
2013-10-20 19:42:00,59.0,46.0,29.84,NE,53,0.0,3.0,63,0.00,,,0.00,,2013-10-20 23:42:00,
2013-10-20 19:52:00,58.0,46.0,29.85,SE,128,0.0,4.0,65,0.00,,,0.00,,2013-10-20 23:52:00,
2013-10-20 20:11:00,57.0,46.0,29.85,WSW,250,0.0,4.0,67,0.00,,,0.00,,2013-10-21 00:11:00,
2013-10-20 20:21:00,56.0,46.0,29.85,South,189,0.0,6.0,69,0.00,,,0.00,,2013-10-21 00:21:00,
2013-10-20 20:43:00,56.0,46.0,29.86,SE,138,0.0,4.0,69,0.00,,,0.00,,2013-10-21 00:43:00,
2013-10-20 20:52:00,56.0,46.0,29.87,South,181,0.0,4.0,70,0.00,,,0.00,,2013-10-21 00:52:00,
2013-10-20 21:21:00,55.0,46.0,29.87,South,191,0.0,3.0,71,0.00,,,0.00,,2013-10-21 01:21:00,
2013-10-20 21:42:00,55.0,45.0,29.87,South,190,0.0,4.0,70,0.00,,,0.00,,2013-10-21 01:42:00,
2013-10-20 21:52:00,55.0,46.0,29.87,South,191,0.0,4.0,71,0.00,,,0.00,,2013-10-21 01:52:00,
2013-10-20 22:22:00,56.0,47.0,29.87,South,191,1.0,5.0,71,0.00,,,0.00,,2013-10-21 02:22:00,
2013-10-20 22:42:00,56.0,47.0,29.87,SSW,201,0.0,3.0,71,0.00,,,0.00,,2013-10-21 02:42:00,
2013-10-20 22:52:00,56.0,47.0,29.87,West,264,0.0,4.0,71,0.00,,,0.00,,2013-10-21 02:52:00,
2013-10-20 23:22:00,56.0,47.0,29.89,SE,145,0.0,3.0,71,0.00,,,0.00,,2013-10-21 03:22:00,
2013-10-20 23:45:00,56.0,47.0,29.88,SW,235,0.0,2.0,71,0.00,,,0.00,,2013-10-21 03:45:00,
2013-10-20 23:55:00,56.0,47.0,29.88,NE,52,1.0,3.0,72,0.00,,,0.00,,2013-10-21 03:55:00,